sensor_id;sensor_type;location;lat;lon;timestamp;P1;durP1;ratioP1;P2;durP2;ratioP2
68475;SDS011;55464;48.266;14.188;2022-10-16T00:00:00;7.30;;;5.82;;
68475;SDS011;55464;48.266;14.188;2022-10-16T00:02:25;6.30;;;5.70;;
68475;SDS011;55464;48.266;14.188;2022-10-16T00:04:51;6.68;;;6.00;;
68475;SDS011;55464;48.266;14.188;2022-10-16T00:07:17;7.35;;;6.07;;
68475;SDS011;55464;48.266;14.188;2022-10-16T00:09:42;7.00;;;6.07;;
68475;SDS011;55464;48.266;14.188;2022-10-16T00:12:08;7.80;;;6.85;;
68475;SDS011;55464;48.266;14.188;2022-10-16T00:14:34;7.45;;;6.63;;
68475;SDS011;55464;48.266;14.188;2022-10-16T00:17:00;7.55;;;6.30;;
68475;SDS011;55464;48.266;14.188;2022-10-16T00:19:25;8.48;;;6.07;;
68475;SDS011;55464;48.266;14.188;2022-10-16T00:21:51;6.35;;;5.75;;
68475;SDS011;55464;48.266;14.188;2022-10-16T00:24:16;8.38;;;6.28;;
68475;SDS011;55464;48.266;14.188;2022-10-16T00:26:42;8.05;;;5.78;;
68475;SDS011;55464;48.266;14.188;2022-10-16T00:29:08;5.78;;;5.28;;
68475;SDS011;55464;48.266;14.188;2022-10-16T00:31:34;10.05;;;5.80;;
68475;SDS011;55464;48.266;14.188;2022-10-16T00:34:00;6.28;;;5.68;;
68475;SDS011;55464;48.266;14.188;2022-10-16T00:36:26;11.30;;;5.40;;
68475;SDS011;55464;48.266;14.188;2022-10-16T00:38:52;5.45;;;4.95;;
68475;SDS011;55464;48.266;14.188;2022-10-16T00:41:19;5.85;;;4.28;;
68475;SDS011;55464;48.266;14.188;2022-10-16T00:48:46;5.25;;;4.55;;
68475;SDS011;55464;48.266;14.188;2022-10-16T00:51:17;4.45;;;4.07;;
68475;SDS011;55464;48.266;14.188;2022-10-16T00:53:46;5.82;;;4.75;;
68475;SDS011;55464;48.266;14.188;2022-10-16T00:56:13;5.10;;;4.60;;
68475;SDS011;55464;48.266;14.188;2022-10-16T00:58:39;6.38;;;5.78;;
68475;SDS011;55464;48.266;14.188;2022-10-16T01:01:04;6.70;;;5.45;;
68475;SDS011;55464;48.266;14.188;2022-10-16T01:03:31;6.22;;;5.60;;
68475;SDS011;55464;48.266;14.188;2022-10-16T01:06:21;6.05;;;5.25;;
68475;SDS011;55464;48.266;14.188;2022-10-16T01:11:52;5.95;;;5.35;;
68475;SDS011;55464;48.266;14.188;2022-10-16T01:17:12;7.10;;;5.68;;
68475;SDS011;55464;48.266;14.188;2022-10-16T01:22:54;5.47;;;4.97;;
68475;SDS011;55464;48.266;14.188;2022-10-16T01:28:16;6.07;;;5.32;;
68475;SDS011;55464;48.266;14.188;2022-10-16T01:30:44;5.95;;;5.03;;
68475;SDS011;55464;48.266;14.188;2022-10-16T01:33:20;4.43;;;4.03;;
68475;SDS011;55464;48.266;14.188;2022-10-16T01:36:05;5.68;;;4.82;;
68475;SDS011;55464;48.266;14.188;2022-10-16T01:38:39;4.95;;;4.45;;
68475;SDS011;55464;48.266;14.188;2022-10-16T01:41:17;4.65;;;4.15;;
68475;SDS011;55464;48.266;14.188;2022-10-16T01:43:56;6.47;;;4.53;;
68475;SDS011;55464;48.266;14.188;2022-10-16T01:46:42;5.57;;;4.97;;
68475;SDS011;55464;48.266;14.188;2022-10-16T01:49:10;5.10;;;4.40;;
68475;SDS011;55464;48.266;14.188;2022-10-16T01:51:38;4.70;;;4.30;;
68475;SDS011;55464;48.266;14.188;2022-10-16T01:54:04;4.63;;;4.22;;
68475;SDS011;55464;48.266;14.188;2022-10-16T01:56:33;4.10;;;3.70;;
68475;SDS011;55464;48.266;14.188;2022-10-16T02:01:35;5.93;;;4.60;;
68475;SDS011;55464;48.266;14.188;2022-10-16T02:06:49;4.55;;;4.15;;
68475;SDS011;55464;48.266;14.188;2022-10-16T02:09:15;4.40;;;4.00;;
68475;SDS011;55464;48.266;14.188;2022-10-16T02:11:42;4.43;;;4.03;;
68475;SDS011;55464;48.266;14.188;2022-10-16T02:14:08;4.13;;;3.75;;
68475;SDS011;55464;48.266;14.188;2022-10-16T02:16:35;4.38;;;4.05;;
68475;SDS011;55464;48.266;14.188;2022-10-16T02:19:06;4.93;;;4.43;;
68475;SDS011;55464;48.266;14.188;2022-10-16T02:21:34;5.70;;;4.60;;
68475;SDS011;55464;48.266;14.188;2022-10-16T02:26:51;6.25;;;4.05;;
68475;SDS011;55464;48.266;14.188;2022-10-16T02:29:25;4.35;;;3.95;;
68475;SDS011;55464;48.266;14.188;2022-10-16T02:31:58;4.22;;;3.83;;
68475;SDS011;55464;48.266;14.188;2022-10-16T02:34:27;4.28;;;3.97;;
68475;SDS011;55464;48.266;14.188;2022-10-16T02:36:56;4.82;;;3.70;;
68475;SDS011;55464;48.266;14.188;2022-10-16T02:39:24;4.30;;;3.90;;
68475;SDS011;55464;48.266;14.188;2022-10-16T02:41:52;5.00;;;4.50;;
68475;SDS011;55464;48.266;14.188;2022-10-16T02:44:17;4.13;;;3.83;;
68475;SDS011;55464;48.266;14.188;2022-10-16T02:46:43;4.50;;;4.10;;
68475;SDS011;55464;48.266;14.188;2022-10-16T02:49:09;4.38;;;3.97;;
68475;SDS011;55464;48.266;14.188;2022-10-16T02:51:34;4.32;;;3.90;;
68475;SDS011;55464;48.266;14.188;2022-10-16T02:54:00;4.20;;;3.88;;
68475;SDS011;55464;48.266;14.188;2022-10-16T02:56:26;4.68;;;4.22;;
68475;SDS011;55464;48.266;14.188;2022-10-16T02:58:52;4.93;;;3.80;;
68475;SDS011;55464;48.266;14.188;2022-10-16T03:01:17;5.25;;;4.22;;
68475;SDS011;55464;48.266;14.188;2022-10-16T03:03:43;5.18;;;4.68;;
68475;SDS011;55464;48.266;14.188;2022-10-16T03:06:09;6.38;;;4.22;;
68475;SDS011;55464;48.266;14.188;2022-10-16T03:08:34;5.50;;;4.80;;
68475;SDS011;55464;48.266;14.188;2022-10-16T03:11:00;5.10;;;4.60;;
68475;SDS011;55464;48.266;14.188;2022-10-16T03:13:26;6.38;;;5.03;;
68475;SDS011;55464;48.266;14.188;2022-10-16T03:15:51;4.82;;;4.40;;
68475;SDS011;55464;48.266;14.188;2022-10-16T03:18:17;4.38;;;3.97;;
68475;SDS011;55464;48.266;14.188;2022-10-16T03:20:43;4.90;;;4.50;;
68475;SDS011;55464;48.266;14.188;2022-10-16T03:23:09;4.45;;;4.05;;
68475;SDS011;55464;48.266;14.188;2022-10-16T03:25:34;4.90;;;4.40;;
68475;SDS011;55464;48.266;14.188;2022-10-16T03:28:00;5.35;;;4.88;;
68475;SDS011;55464;48.266;14.188;2022-10-16T03:30:26;5.07;;;4.57;;
68475;SDS011;55464;48.266;14.188;2022-10-16T03:32:52;4.22;;;3.83;;
68475;SDS011;55464;48.266;14.188;2022-10-16T03:35:19;5.05;;;4.55;;
68475;SDS011;55464;48.266;14.188;2022-10-16T03:37:49;4.90;;;4.20;;
68475;SDS011;55464;48.266;14.188;2022-10-16T03:40:15;5.80;;;5.18;;
68475;SDS011;55464;48.266;14.188;2022-10-16T03:42:42;5.15;;;4.65;;
68475;SDS011;55464;48.266;14.188;2022-10-16T03:45:09;4.68;;;4.28;;
68475;SDS011;55464;48.266;14.188;2022-10-16T03:47:35;4.35;;;3.95;;
68475;SDS011;55464;48.266;14.188;2022-10-16T03:50:01;4.97;;;4.47;;
68475;SDS011;55464;48.266;14.188;2022-10-16T03:52:27;4.20;;;3.80;;
68475;SDS011;55464;48.266;14.188;2022-10-16T03:54:52;4.32;;;3.97;;
68475;SDS011;55464;48.266;14.188;2022-10-16T03:57:18;4.75;;;4.35;;
68475;SDS011;55464;48.266;14.188;2022-10-16T03:59:45;4.70;;;4.20;;
68475;SDS011;55464;48.266;14.188;2022-10-16T04:02:11;5.40;;;4.55;;
68475;SDS011;55464;48.266;14.188;2022-10-16T04:04:37;4.32;;;3.85;;
68475;SDS011;55464;48.266;14.188;2022-10-16T04:07:03;5.18;;;4.68;;
68475;SDS011;55464;48.266;14.188;2022-10-16T04:09:29;4.95;;;4.45;;
68475;SDS011;55464;48.266;14.188;2022-10-16T04:11:55;4.70;;;4.30;;
68475;SDS011;55464;48.266;14.188;2022-10-16T04:14:20;5.30;;;4.80;;
68475;SDS011;55464;48.266;14.188;2022-10-16T04:16:46;6.97;;;4.75;;
68475;SDS011;55464;48.266;14.188;2022-10-16T04:19:12;6.60;;;5.00;;
68475;SDS011;55464;48.266;14.188;2022-10-16T04:21:38;5.93;;;4.93;;
68475;SDS011;55464;48.266;14.188;2022-10-16T04:24:03;6.78;;;5.72;;
68475;SDS011;55464;48.266;14.188;2022-10-16T04:26:29;6.80;;;5.05;;
68475;SDS011;55464;48.266;14.188;2022-10-16T04:28:55;8.05;;;5.60;;
68475;SDS011;55464;48.266;14.188;2022-10-16T04:31:21;8.48;;;5.82;;
68475;SDS011;55464;48.266;14.188;2022-10-16T04:33:47;6.40;;;5.10;;
68475;SDS011;55464;48.266;14.188;2022-10-16T04:36:12;5.70;;;4.75;;
68475;SDS011;55464;48.266;14.188;2022-10-16T04:38:39;6.05;;;4.72;;
68475;SDS011;55464;48.266;14.188;2022-10-16T04:41:05;5.93;;;4.50;;
68475;SDS011;55464;48.266;14.188;2022-10-16T04:43:32;5.07;;;4.40;;
68475;SDS011;55464;48.266;14.188;2022-10-16T04:45:58;7.07;;;5.10;;
68475;SDS011;55464;48.266;14.188;2022-10-16T04:48:24;5.97;;;4.82;;
68475;SDS011;55464;48.266;14.188;2022-10-16T04:50:49;6.90;;;5.25;;
68475;SDS011;55464;48.266;14.188;2022-10-16T04:53:15;6.72;;;5.72;;
68475;SDS011;55464;48.266;14.188;2022-10-16T04:55:41;5.50;;;4.68;;
68475;SDS011;55464;48.266;14.188;2022-10-16T04:58:07;5.18;;;4.68;;
68475;SDS011;55464;48.266;14.188;2022-10-16T05:00:33;6.05;;;5.13;;
68475;SDS011;55464;48.266;14.188;2022-10-16T05:02:59;6.07;;;4.25;;
68475;SDS011;55464;48.266;14.188;2022-10-16T05:05:26;4.40;;;4.00;;
68475;SDS011;55464;48.266;14.188;2022-10-16T05:07:53;3.95;;;3.65;;
68475;SDS011;55464;48.266;14.188;2022-10-16T05:10:19;3.95;;;3.65;;
68475;SDS011;55464;48.266;14.188;2022-10-16T05:12:44;3.88;;;3.58;;
68475;SDS011;55464;48.266;14.188;2022-10-16T05:15:11;3.47;;;3.17;;
68475;SDS011;55464;48.266;14.188;2022-10-16T05:17:37;4.00;;;3.70;;
68475;SDS011;55464;48.266;14.188;2022-10-16T05:20:03;3.78;;;3.47;;
68475;SDS011;55464;48.266;14.188;2022-10-16T05:22:29;4.15;;;3.80;;
68475;SDS011;55464;48.266;14.188;2022-10-16T05:24:55;5.28;;;4.47;;
68475;SDS011;55464;48.266;14.188;2022-10-16T05:27:20;5.28;;;4.53;;
68475;SDS011;55464;48.266;14.188;2022-10-16T05:29:46;5.13;;;4.45;;
68475;SDS011;55464;48.266;14.188;2022-10-16T05:32:13;7.32;;;5.10;;
68475;SDS011;55464;48.266;14.188;2022-10-16T05:34:43;5.90;;;5.30;;
68475;SDS011;55464;48.266;14.188;2022-10-16T05:37:09;6.90;;;5.65;;
68475;SDS011;55464;48.266;14.188;2022-10-16T05:39:36;7.05;;;5.95;;
68475;SDS011;55464;48.266;14.188;2022-10-16T05:42:02;7.10;;;5.93;;
68475;SDS011;55464;48.266;14.188;2022-10-16T05:44:28;6.40;;;5.65;;
68475;SDS011;55464;48.266;14.188;2022-10-16T05:46:54;6.15;;;5.50;;
68475;SDS011;55464;48.266;14.188;2022-10-16T05:49:20;6.57;;;5.78;;
68475;SDS011;55464;48.266;14.188;2022-10-16T05:51:45;5.85;;;5.03;;
68475;SDS011;55464;48.266;14.188;2022-10-16T05:54:11;5.28;;;4.78;;
68475;SDS011;55464;48.266;14.188;2022-10-16T05:56:37;5.18;;;4.68;;
68475;SDS011;55464;48.266;14.188;2022-10-16T05:59:03;5.32;;;4.82;;
68475;SDS011;55464;48.266;14.188;2022-10-16T06:01:29;5.20;;;4.70;;
68475;SDS011;55464;48.266;14.188;2022-10-16T06:03:55;7.93;;;4.88;;
68475;SDS011;55464;48.266;14.188;2022-10-16T06:06:22;5.13;;;4.63;;
68475;SDS011;55464;48.266;14.188;2022-10-16T06:08:51;6.30;;;5.18;;
68475;SDS011;55464;48.266;14.188;2022-10-16T06:11:21;8.90;;;5.20;;
68475;SDS011;55464;48.266;14.188;2022-10-16T06:13:52;6.65;;;4.18;;
68475;SDS011;55464;48.266;14.188;2022-10-16T06:16:21;5.55;;;4.45;;
68475;SDS011;55464;48.266;14.188;2022-10-16T06:18:50;6.43;;;4.68;;
68475;SDS011;55464;48.266;14.188;2022-10-16T06:21:18;4.88;;;4.38;;
68475;SDS011;55464;48.266;14.188;2022-10-16T06:23:45;6.00;;;5.03;;
68475;SDS011;55464;48.266;14.188;2022-10-16T06:26:12;4.57;;;4.03;;
68475;SDS011;55464;48.266;14.188;2022-10-16T06:28:39;5.18;;;4.28;;
68475;SDS011;55464;48.266;14.188;2022-10-16T06:31:06;4.35;;;3.95;;
68475;SDS011;55464;48.266;14.188;2022-10-16T06:33:33;3.50;;;3.20;;
68475;SDS011;55464;48.266;14.188;2022-10-16T06:38:38;4.30;;;3.05;;
68475;SDS011;55464;48.266;14.188;2022-10-16T06:41:04;3.55;;;3.25;;
68475;SDS011;55464;48.266;14.188;2022-10-16T06:43:31;3.80;;;3.45;;
68475;SDS011;55464;48.266;14.188;2022-10-16T06:45:58;3.75;;;3.17;;
68475;SDS011;55464;48.266;14.188;2022-10-16T06:48:25;3.63;;;3.33;;
68475;SDS011;55464;48.266;14.188;2022-10-16T06:50:55;4.50;;;3.70;;
68475;SDS011;55464;48.266;14.188;2022-10-16T06:53:21;5.13;;;4.40;;
68475;SDS011;55464;48.266;14.188;2022-10-16T06:55:46;5.60;;;4.70;;
68475;SDS011;55464;48.266;14.188;2022-10-16T06:58:12;7.75;;;5.40;;
68475;SDS011;55464;48.266;14.188;2022-10-16T07:00:37;7.15;;;6.03;;
68475;SDS011;55464;48.266;14.188;2022-10-16T07:03:03;9.85;;;7.40;;
68475;SDS011;55464;48.266;14.188;2022-10-16T07:05:29;15.25;;;9.70;;
68475;SDS011;55464;48.266;14.188;2022-10-16T07:07:54;16.85;;;10.32;;
68475;SDS011;55464;48.266;14.188;2022-10-16T07:10:20;12.43;;;8.18;;
68475;SDS011;55464;48.266;14.188;2022-10-16T07:12:49;11.52;;;8.38;;
68475;SDS011;55464;48.266;14.188;2022-10-16T07:15:14;11.18;;;7.57;;
68475;SDS011;55464;48.266;14.188;2022-10-16T07:17:40;10.40;;;7.90;;
68475;SDS011;55464;48.266;14.188;2022-10-16T07:20:06;11.52;;;8.32;;
68475;SDS011;55464;48.266;14.188;2022-10-16T07:22:32;13.07;;;8.90;;
68475;SDS011;55464;48.266;14.188;2022-10-16T07:24:57;14.38;;;9.90;;
68475;SDS011;55464;48.266;14.188;2022-10-16T07:27:24;18.27;;;11.90;;
68475;SDS011;55464;48.266;14.188;2022-10-16T07:29:51;22.10;;;13.00;;
68475;SDS011;55464;48.266;14.188;2022-10-16T07:32:16;24.17;;;13.85;;
68475;SDS011;55464;48.266;14.188;2022-10-16T07:34:42;19.27;;;12.75;;
68475;SDS011;55464;48.266;14.188;2022-10-16T07:37:08;20.73;;;13.23;;
68475;SDS011;55464;48.266;14.188;2022-10-16T07:39:33;16.05;;;10.70;;
68475;SDS011;55464;48.266;14.188;2022-10-16T07:41:59;15.80;;;10.90;;
68475;SDS011;55464;48.266;14.188;2022-10-16T07:44:24;17.50;;;11.77;;
68475;SDS011;55464;48.266;14.188;2022-10-16T07:46:50;19.17;;;12.77;;
68475;SDS011;55464;48.266;14.188;2022-10-16T07:49:16;18.88;;;11.52;;
68475;SDS011;55464;48.266;14.188;2022-10-16T07:51:41;19.42;;;11.68;;
68475;SDS011;55464;48.266;14.188;2022-10-16T07:54:08;16.02;;;10.85;;
68475;SDS011;55464;48.266;14.188;2022-10-16T07:56:34;13.68;;;9.38;;
68475;SDS011;55464;48.266;14.188;2022-10-16T07:59:00;15.20;;;9.68;;
68475;SDS011;55464;48.266;14.188;2022-10-16T08:01:25;11.30;;;8.60;;
68475;SDS011;55464;48.266;14.188;2022-10-16T08:03:51;11.20;;;8.55;;
68475;SDS011;55464;48.266;14.188;2022-10-16T08:06:18;12.25;;;8.57;;
68475;SDS011;55464;48.266;14.188;2022-10-16T08:08:45;11.32;;;9.15;;
68475;SDS011;55464;48.266;14.188;2022-10-16T08:11:11;13.05;;;9.60;;
68475;SDS011;55464;48.266;14.188;2022-10-16T08:13:36;14.05;;;9.15;;
68475;SDS011;55464;48.266;14.188;2022-10-16T08:16:02;13.10;;;9.52;;
68475;SDS011;55464;48.266;14.188;2022-10-16T08:18:33;12.52;;;9.07;;
68475;SDS011;55464;48.266;14.188;2022-10-16T08:21:02;12.38;;;8.55;;
68475;SDS011;55464;48.266;14.188;2022-10-16T08:23:29;10.90;;;8.55;;
68475;SDS011;55464;48.266;14.188;2022-10-16T08:25:56;9.63;;;7.57;;
68475;SDS011;55464;48.266;14.188;2022-10-16T08:28:26;8.40;;;7.13;;
68475;SDS011;55464;48.266;14.188;2022-10-16T08:30:52;7.38;;;6.18;;
68475;SDS011;55464;48.266;14.188;2022-10-16T08:33:18;8.32;;;6.55;;
68475;SDS011;55464;48.266;14.188;2022-10-16T08:35:49;5.97;;;5.38;;
68475;SDS011;55464;48.266;14.188;2022-10-16T08:38:19;5.18;;;4.68;;
68475;SDS011;55464;48.266;14.188;2022-10-16T08:40:46;4.97;;;4.47;;
68475;SDS011;55464;48.266;14.188;2022-10-16T08:48:50;4.25;;;3.85;;
68475;SDS011;55464;48.266;14.188;2022-10-16T08:51:23;4.75;;;4.30;;
68475;SDS011;55464;48.266;14.188;2022-10-16T08:53:53;4.40;;;4.00;;
68475;SDS011;55464;48.266;14.188;2022-10-16T08:56:22;4.43;;;3.90;;
68475;SDS011;55464;48.266;14.188;2022-10-16T08:58:48;4.30;;;3.90;;
68475;SDS011;55464;48.266;14.188;2022-10-16T09:01:15;4.28;;;3.88;;
68475;SDS011;55464;48.266;14.188;2022-10-16T09:03:51;4.47;;;4.03;;
68475;SDS011;55464;48.266;14.188;2022-10-16T09:06:45;4.88;;;3.75;;
68475;SDS011;55464;48.266;14.188;2022-10-16T09:09:28;6.38;;;5.40;;
68475;SDS011;55464;48.266;14.188;2022-10-16T09:12:21;4.10;;;3.42;;
68475;SDS011;55464;48.266;14.188;2022-10-16T09:15:03;3.97;;;3.40;;
68475;SDS011;55464;48.266;14.188;2022-10-16T09:24:15;3.40;;;3.08;;
68475;SDS011;55464;48.266;14.188;2022-10-16T09:26:46;3.60;;;3.08;;
68475;SDS011;55464;48.266;14.188;2022-10-16T09:29:16;3.30;;;3.00;;
68475;SDS011;55464;48.266;14.188;2022-10-16T09:31:46;5.03;;;3.58;;
68475;SDS011;55464;48.266;14.188;2022-10-16T09:37:18;3.40;;;3.05;;
68475;SDS011;55464;48.266;14.188;2022-10-16T09:39:50;3.60;;;3.30;;
68475;SDS011;55464;48.266;14.188;2022-10-16T09:42:17;2.88;;;2.65;;
68475;SDS011;55464;48.266;14.188;2022-10-16T09:44:51;4.70;;;3.17;;
68475;SDS011;55464;48.266;14.188;2022-10-16T09:47:19;4.10;;;3.15;;
68475;SDS011;55464;48.266;14.188;2022-10-16T09:49:55;3.13;;;2.83;;
68475;SDS011;55464;48.266;14.188;2022-10-16T09:52:27;4.30;;;3.00;;
68475;SDS011;55464;48.266;14.188;2022-10-16T09:54:55;5.53;;;2.83;;
68475;SDS011;55464;48.266;14.188;2022-10-16T09:57:25;6.13;;;3.58;;
68475;SDS011;55464;48.266;14.188;2022-10-16T09:59:52;4.22;;;3.10;;
68475;SDS011;55464;48.266;14.188;2022-10-16T10:02:29;3.55;;;3.00;;
68475;SDS011;55464;48.266;14.188;2022-10-16T10:04:58;5.43;;;3.13;;
68475;SDS011;55464;48.266;14.188;2022-10-16T10:07:25;3.95;;;3.20;;
68475;SDS011;55464;48.266;14.188;2022-10-16T10:09:53;7.45;;;4.95;;
68475;SDS011;55464;48.266;14.188;2022-10-16T10:14:52;5.18;;;4.07;;
